createdAt,value
2023-09-11T00:00:26.586Z,93.44
2023-09-11T00:02:53.296Z,93.56
2023-09-11T00:05:20.046Z,93.66
2023-09-11T00:07:46.556Z,93.65
2023-09-11T00:10:13.071Z,93.77
2023-09-11T00:12:39.628Z,94.05
2023-09-11T00:15:06.858Z,94.16
2023-09-11T00:17:33.858Z,94.44
2023-09-11T00:20:00.455Z,94.35
2023-09-11T00:22:27.049Z,94.52
2023-09-11T00:24:53.547Z,94.45
2023-09-11T00:27:20.077Z,94.49
2023-09-11T00:29:46.592Z,94.58
2023-09-11T00:32:13.175Z,94.87
2023-09-11T00:34:39.651Z,94.99
2023-09-11T00:37:06.182Z,95.17
2023-09-11T00:39:32.708Z,95.32
2023-09-11T00:41:59.379Z,94.75
2023-09-11T00:44:26.185Z,94.83
2023-09-11T00:46:52.973Z,95.00
2023-09-11T00:49:21.358Z,95.09
2023-09-11T00:51:49.154Z,94.99
2023-09-11T00:54:16.137Z,95.15
2023-09-11T00:56:42.778Z,95.03
2023-09-11T00:59:09.821Z,94.94
2023-09-11T01:01:37.197Z,95.03
2023-09-11T01:04:03.864Z,95.21
2023-09-11T01:06:30.396Z,95.07
2023-09-11T01:08:58.121Z,94.75
2023-09-11T01:11:24.741Z,95.00
2023-09-11T01:13:51.723Z,95.23
2023-09-11T01:16:18.220Z,95.38
2023-09-11T01:19:07.031Z,95.44
2023-09-11T01:22:07.847Z,95.35
2023-09-11T01:25:12.461Z,95.66
2023-09-11T01:27:55.418Z,95.48
2023-09-11T01:30:23.242Z,95.36
2023-09-11T01:32:50.627Z,95.39
2023-09-11T01:35:17.412Z,95.56
2023-09-11T01:37:44.215Z,95.60
2023-09-11T01:40:10.986Z,95.51
2023-09-11T01:42:45.079Z,95.40
2023-09-11T01:45:15.950Z,95.39
2023-09-11T01:47:52.680Z,95.46
2023-09-11T01:50:22.878Z,95.23
2023-09-11T01:52:50.959Z,95.50
2023-09-11T01:55:18.109Z,95.53
2023-09-11T01:57:44.945Z,95.82
2023-09-11T02:00:12.948Z,95.49
2023-09-11T02:02:40.412Z,95.60
2023-09-11T02:05:07.844Z,95.86
2023-09-11T02:07:34.385Z,95.86
2023-09-11T02:10:00.900Z,96.20
2023-09-11T02:12:27.390Z,96.04
2023-09-11T02:14:54.135Z,96.11
2023-09-11T02:17:20.682Z,96.22
2023-09-11T02:19:47.170Z,96.50
2023-09-11T02:22:13.714Z,96.66
2023-09-11T02:24:40.234Z,96.70
2023-09-11T02:27:06.844Z,96.40
2023-09-11T02:29:33.541Z,96.58
2023-09-11T02:32:01.477Z,96.54
2023-09-11T02:34:27.986Z,96.70
2023-09-11T02:36:54.543Z,96.73
2023-09-11T02:39:21.052Z,96.63
2023-09-11T02:41:47.618Z,96.56
2023-09-11T02:44:14.098Z,96.51
2023-09-11T02:46:40.665Z,96.47
2023-09-11T02:49:07.167Z,96.54
2023-09-11T02:51:33.824Z,96.42
2023-09-11T02:54:00.499Z,96.57
2023-09-11T02:56:27.077Z,96.78
2023-09-11T02:58:53.643Z,96.63
2023-09-11T03:01:20.824Z,96.89
2023-09-11T03:03:47.529Z,97.11
2023-09-11T03:06:14.416Z,97.15
2023-09-11T03:08:41.145Z,97.27
2023-09-11T03:11:10.394Z,96.93
2023-09-11T03:13:37.810Z,97.03
2023-09-11T03:16:11.728Z,97.12
2023-09-11T03:18:39.888Z,97.12
2023-09-11T03:21:08.379Z,97.03
2023-09-11T03:23:35.767Z,96.83
2023-09-11T03:26:02.706Z,96.83
2023-09-11T03:28:30.785Z,96.87
2023-09-11T03:30:57.761Z,96.84
2023-09-11T03:33:24.713Z,96.94
2023-09-11T03:35:51.449Z,96.94
2023-09-11T03:38:17.981Z,97.00
2023-09-11T03:40:46.899Z,97.13
2023-09-11T03:43:14.071Z,97.21
2023-09-11T03:45:40.692Z,97.30
2023-09-11T03:48:07.356Z,97.35
2023-09-11T03:50:35.150Z,97.43
2023-09-11T03:53:01.668Z,97.45
2023-09-11T03:55:28.649Z,97.27
2023-09-11T03:57:55.338Z,97.27
2023-09-11T04:00:22.109Z,97.19
2023-09-11T04:02:48.795Z,97.37
2023-09-11T04:05:15.483Z,97.26
2023-09-11T04:07:42.683Z,97.12
2023-09-11T04:10:09.547Z,97.40
2023-09-11T04:12:36.089Z,97.45
2023-09-11T04:15:02.730Z,97.25
2023-09-11T04:17:29.335Z,97.31
2023-09-11T04:19:56.022Z,97.58
2023-09-11T04:22:22.622Z,97.47
2023-09-11T04:24:49.324Z,97.83
2023-09-11T04:27:15.870Z,97.57
2023-09-11T04:29:43.392Z,97.41
2023-09-11T04:32:10.410Z,97.71
2023-09-11T04:34:37.018Z,97.71
2023-09-11T04:37:03.781Z,97.52
2023-09-11T04:39:30.332Z,97.55
2023-09-11T04:41:56.931Z,97.61
2023-09-11T04:44:23.559Z,97.77
2023-09-11T04:46:50.245Z,97.87
2023-09-11T04:49:16.789Z,97.94
2023-09-11T04:51:43.338Z,98.14
2023-09-11T04:54:09.886Z,98.14
2023-09-11T04:56:36.456Z,98.19
2023-09-11T04:59:03.157Z,98.34
2023-09-11T05:01:29.748Z,98.35
2023-09-11T05:03:56.651Z,98.54
2023-09-11T05:06:23.428Z,98.54
2023-09-11T05:09:10.646Z,98.30
2023-09-11T05:11:37.450Z,98.24
2023-09-11T05:14:04.052Z,98.37
2023-09-11T05:16:31.022Z,98.38
2023-09-11T05:18:57.653Z,98.40
2023-09-11T05:21:24.166Z,98.60
2023-09-11T05:23:50.780Z,98.56
2023-09-11T05:26:17.437Z,98.62
2023-09-11T05:28:43.986Z,98.71
2023-09-11T05:31:11.548Z,98.60
2023-09-11T05:33:38.113Z,98.57
2023-09-11T05:36:05.110Z,98.52
2023-09-11T05:38:31.918Z,98.59
2023-09-11T05:40:58.600Z,98.66
2023-09-11T05:43:28.931Z,98.64
2023-09-11T05:45:56.315Z,98.60
2023-09-11T05:48:24.406Z,98.51
2023-09-11T05:50:53.196Z,98.39
2023-09-11T05:53:19.830Z,98.29
2023-09-11T05:55:46.969Z,98.36
2023-09-11T05:58:13.789Z,98.32
2023-09-11T06:00:40.467Z,98.26
2023-09-11T06:03:07.625Z,98.07
2023-09-11T06:05:37.811Z,97.56
2023-09-11T06:08:04.784Z,97.30
2023-09-11T06:10:31.517Z,97.12
2023-09-11T06:12:58.020Z,96.77
2023-09-11T06:15:26.073Z,96.03
2023-09-11T06:17:52.839Z,94.47
2023-09-11T06:20:21.189Z,92.83
2023-09-11T06:22:48.608Z,91.23
2023-09-11T06:25:16.275Z,90.37
2023-09-11T06:27:42.841Z,87.62
2023-09-11T06:30:09.982Z,84.60
2023-09-11T06:32:37.198Z,83.71
2023-09-11T06:35:06.912Z,82.60
2023-09-11T06:37:33.449Z,83.34
2023-09-11T06:40:00.001Z,82.00
2023-09-11T06:42:26.486Z,83.59
2023-09-11T06:44:54.054Z,83.56
2023-09-11T06:47:21.187Z,83.62
2023-09-11T06:49:48.164Z,83.21
2023-09-11T06:52:17.037Z,83.12
2023-09-11T06:54:43.687Z,83.28
2023-09-11T06:57:10.227Z,82.64
2023-09-11T06:59:36.798Z,82.13
2023-09-11T07:02:03.545Z,81.67
2023-09-11T07:04:31.841Z,79.16
2023-09-11T07:06:58.521Z,75.88
2023-09-11T07:09:25.042Z,73.66
2023-09-11T07:11:52.140Z,72.33
2023-09-11T07:14:22.563Z,69.87
2023-09-11T07:16:49.469Z,67.46
2023-09-11T07:19:16.327Z,62.89
2023-09-11T07:21:45.337Z,63.07
2023-09-11T07:24:12.802Z,63.87
2023-09-11T07:26:39.770Z,64.20
2023-09-11T07:29:06.390Z,63.26
2023-09-11T07:31:33.565Z,62.34
2023-09-11T07:34:00.354Z,57.28
2023-09-11T07:36:28.841Z,55.38
2023-09-11T07:38:55.701Z,53.64
2023-09-11T07:41:22.493Z,52.18
2023-09-11T07:43:52.471Z,51.66
2023-09-11T07:46:21.072Z,52.10
2023-09-11T08:49:24.203Z,37.53
2023-09-11T08:51:54.102Z,39.16
2023-09-11T08:54:25.443Z,38.28
2023-09-11T08:56:54.697Z,36.57
2023-09-11T08:59:24.932Z,36.00
2023-09-11T09:01:52.814Z,36.48
2023-09-11T09:04:20.533Z,36.32
2023-09-11T09:06:48.057Z,35.94
2023-09-11T09:09:14.714Z,34.25
2023-09-11T09:11:49.108Z,33.13
2023-09-11T09:14:19.837Z,33.99
2023-09-11T09:16:47.287Z,33.05
2023-09-11T09:19:14.205Z,35.81
2023-09-11T09:22:06.561Z,34.79
2023-09-11T09:24:38.571Z,34.20
2023-09-11T09:27:06.793Z,34.42
2023-09-11T09:29:38.638Z,33.19
2023-09-11T09:32:07.251Z,32.40
2023-09-11T09:34:35.822Z,33.04
2023-09-11T09:37:03.029Z,32.18
2023-09-11T09:39:30.981Z,31.52
2023-09-11T09:41:59.800Z,31.45
2023-09-11T09:44:29.117Z,31.70
2023-09-11T09:46:55.771Z,31.55
2023-09-11T09:49:23.313Z,33.11
2023-09-11T09:51:50.016Z,32.58
2023-09-11T09:54:16.593Z,31.63
2023-09-11T09:56:43.441Z,29.71
2023-09-11T09:59:10.040Z,32.93
2023-09-11T10:01:47.511Z,29.96
2023-09-11T10:04:17.540Z,30.53
2023-09-11T10:06:56.217Z,30.42
2023-09-11T10:09:23.079Z,31.00
2023-09-11T10:11:51.979Z,29.65
2023-09-11T10:14:19.830Z,32.19
2023-09-11T10:16:47.537Z,31.02
2023-09-11T10:19:14.327Z,30.16
2023-09-11T10:21:41.170Z,29.34
2023-09-11T10:24:09.855Z,31.06
2023-09-11T10:26:39.542Z,31.08
2023-09-11T10:29:12.951Z,31.50
2023-09-11T10:32:10.260Z,30.64
2023-09-11T10:34:38.622Z,31.37
2023-09-11T10:37:06.377Z,31.14
2023-09-11T10:39:37.461Z,32.55
2023-09-11T10:42:04.309Z,29.46
2023-09-11T10:44:35.597Z,33.07
2023-09-11T10:47:03.958Z,29.53
2023-09-11T10:49:35.622Z,29.26
2023-09-11T10:52:04.709Z,29.81
2023-09-11T10:54:31.374Z,30.11
2023-09-11T10:56:58.116Z,29.77
2023-09-11T10:59:25.267Z,29.61
2023-09-11T11:01:52.541Z,29.17
2023-09-11T11:04:19.639Z,28.90
2023-09-11T11:06:47.437Z,28.26
2023-09-11T11:09:33.262Z,31.19
2023-09-11T11:12:05.369Z,29.20
2023-09-11T11:14:32.407Z,28.76
2023-09-11T11:17:11.169Z,29.18
2023-09-11T11:20:01.659Z,30.21
2023-09-11T11:22:33.353Z,28.07
2023-09-11T11:25:04.450Z,29.54
2023-09-11T11:27:30.993Z,28.53
2023-09-11T11:29:58.545Z,29.17
2023-09-11T11:32:26.691Z,30.10
2023-09-11T11:34:56.123Z,29.24
2023-09-11T11:37:25.026Z,31.79
2023-09-11T11:39:51.921Z,28.56
2023-09-11T11:42:18.795Z,31.05
2023-09-11T11:44:45.712Z,28.30
2023-09-11T11:47:13.146Z,28.30
2023-09-11T11:49:39.993Z,28.56
2023-09-11T11:52:06.851Z,32.30
2023-09-11T11:54:34.877Z,28.91
2023-09-11T11:57:03.918Z,29.35
2023-09-11T11:59:31.963Z,28.57
2023-09-11T12:01:58.781Z,31.17
2023-09-11T12:04:45.330Z,29.22
2023-09-11T12:07:12.479Z,29.42
2023-09-11T12:09:42.299Z,28.74
2023-09-11T12:12:09.464Z,32.12
2023-09-11T12:14:37.639Z,31.33
2023-09-11T12:17:09.424Z,30.75
2023-09-11T12:19:36.189Z,30.17
2023-09-11T12:22:03.548Z,27.12
2023-09-11T12:24:30.155Z,29.45
2023-09-11T12:26:56.945Z,29.03
2023-09-11T12:29:24.320Z,29.50
2023-09-11T12:31:51.483Z,29.77
2023-09-11T12:34:18.032Z,31.08
2023-09-11T12:36:44.821Z,28.02
2023-09-11T12:39:11.725Z,28.43
2023-09-11T12:41:38.399Z,31.20
2023-09-11T12:44:06.092Z,27.94
2023-09-11T12:46:32.804Z,30.05
2023-09-11T12:49:00.038Z,28.44
2023-09-11T12:51:26.837Z,29.07
2023-09-11T12:53:53.417Z,29.57
2023-09-11T12:56:21.773Z,29.76
2023-09-11T12:58:49.014Z,29.01
2023-09-11T13:01:15.645Z,30.30
2023-09-11T13:03:47.196Z,32.00
2023-09-11T13:06:14.119Z,29.80
2023-09-11T13:08:41.783Z,30.75
2023-09-11T13:11:08.644Z,30.81
2023-09-11T13:13:43.900Z,30.31
2023-09-11T13:16:10.786Z,31.01
2023-09-11T13:18:37.479Z,32.02
2023-09-11T13:21:04.511Z,30.31
2023-09-11T13:23:31.136Z,30.37
2023-09-11T13:25:57.897Z,30.92
2023-09-11T13:28:24.538Z,30.26
2023-09-11T13:30:51.208Z,29.74
2023-09-11T13:33:17.835Z,29.78
2023-09-11T13:35:44.523Z,29.37
2023-09-11T13:38:11.055Z,31.29
2023-09-11T13:40:37.575Z,29.93
2023-09-11T13:43:04.335Z,30.17
2023-09-11T13:45:31.017Z,32.53
2023-09-11T13:47:57.845Z,29.10
2023-09-11T13:50:24.600Z,32.46
2023-09-11T13:52:51.113Z,31.33
2023-09-11T13:55:17.865Z,34.40
2023-09-11T13:57:44.393Z,35.17
2023-09-11T14:00:11.667Z,31.08
2023-09-11T14:02:38.503Z,32.79
2023-09-11T14:05:05.610Z,32.82
2023-09-11T14:07:32.159Z,30.37
2023-09-11T14:09:58.700Z,30.46
2023-09-11T14:12:25.299Z,35.47
2023-09-11T14:14:51.926Z,31.03
2023-09-11T14:17:18.557Z,31.16
2023-09-11T14:19:45.114Z,34.56
2023-09-11T14:22:11.611Z,32.15
2023-09-11T14:24:40.952Z,31.30
2023-09-11T14:27:10.771Z,34.49
2023-09-11T14:29:37.368Z,34.84
2023-09-11T14:32:07.059Z,33.98
2023-09-11T14:34:34.680Z,32.72
2023-09-11T14:37:16.843Z,32.71
2023-09-11T14:39:48.202Z,34.08
2023-09-11T14:42:15.329Z,31.14
2023-09-11T14:44:42.157Z,32.29
2023-09-11T14:47:08.716Z,31.64
2023-09-11T14:49:35.254Z,32.97
2023-09-11T14:52:01.785Z,32.40
2023-09-11T14:54:33.073Z,35.55
2023-09-11T14:57:09.696Z,33.24
2023-09-11T14:59:36.296Z,38.95
2023-09-11T15:02:02.920Z,36.75
2023-09-11T15:04:46.888Z,33.97
2023-09-11T15:07:15.753Z,34.20
2023-09-11T15:09:42.511Z,35.29
2023-09-11T15:12:09.815Z,40.24
2023-09-11T15:14:38.105Z,40.42
2023-09-11T15:17:05.527Z,42.52
2023-09-11T15:19:32.272Z,37.08
2023-09-11T15:21:58.754Z,40.86
2023-09-11T15:24:25.317Z,41.23
2023-09-11T15:26:51.963Z,43.01
2023-09-11T15:29:18.568Z,38.48
2023-09-11T15:31:52.409Z,41.38
2023-09-11T15:34:30.633Z,43.21
2023-09-11T15:36:57.259Z,39.48
2023-09-11T15:39:23.839Z,42.28
2023-09-11T15:41:50.430Z,41.96
2023-09-11T15:44:17.082Z,40.89
2023-09-11T15:46:44.002Z,42.80
2023-09-11T15:49:12.861Z,43.68
2023-09-11T15:51:39.615Z,42.50
2023-09-11T15:54:06.373Z,41.71
2023-09-11T15:56:33.020Z,40.60
2023-09-11T15:58:59.616Z,44.27
2023-09-11T16:01:26.274Z,47.17
2023-09-11T16:03:53.446Z,42.75
2023-09-11T16:06:20.143Z,44.65
2023-09-11T16:08:48.454Z,48.32
2023-09-11T16:11:15.188Z,51.13
2023-09-11T16:13:41.758Z,49.83
2023-09-11T16:16:08.551Z,53.35
2023-09-11T16:18:35.228Z,51.99
2023-09-11T16:21:01.819Z,53.39
2023-09-11T16:23:28.386Z,54.34
2023-09-11T16:25:54.938Z,55.66
2023-09-11T16:28:26.089Z,56.51
2023-09-11T16:30:53.076Z,57.79
2023-09-11T16:33:19.766Z,58.15
2023-09-11T16:35:46.390Z,58.78
2023-09-11T16:38:13.278Z,59.58
2023-09-11T16:40:39.808Z,60.72
2023-09-11T16:43:07.521Z,62.41
2023-09-11T16:45:34.096Z,63.22
2023-09-11T16:48:00.688Z,63.26
2023-09-11T16:50:27.312Z,64.40
2023-09-11T16:52:56.785Z,65.12
2023-09-11T16:55:23.830Z,64.63
2023-09-11T16:57:50.369Z,65.69
2023-09-11T17:00:17.614Z,65.93
2023-09-11T17:02:45.582Z,67.03
2023-09-11T17:05:12.428Z,67.69
2023-09-11T17:07:39.033Z,67.34
2023-09-11T17:10:06.949Z,67.68
2023-09-11T17:12:33.997Z,68.48
2023-09-11T17:15:00.598Z,67.68
2023-09-11T17:17:27.206Z,68.87
2023-09-11T17:19:57.178Z,69.34
2023-09-11T17:22:23.908Z,69.45
2023-09-11T17:24:51.359Z,68.27
2023-09-11T17:27:20.468Z,69.33
2023-09-11T17:29:47.078Z,70.30
2023-09-11T17:32:13.698Z,71.00
2023-09-11T17:34:40.249Z,71.54
2023-09-11T17:37:07.528Z,71.53
2023-09-11T17:39:34.092Z,71.27
2023-09-11T17:42:00.716Z,71.50
2023-09-11T17:44:28.452Z,71.38
2023-09-11T17:46:55.000Z,71.80
2023-09-11T17:49:21.603Z,72.01
2023-09-11T17:51:48.241Z,71.41
2023-09-11T17:54:14.925Z,72.03
2023-09-11T17:56:41.540Z,71.75
2023-09-11T17:59:08.134Z,72.02
2023-09-11T18:01:34.674Z,72.76
2023-09-11T18:04:01.393Z,72.85
2023-09-11T18:06:28.848Z,72.46
2023-09-11T18:08:57.032Z,73.07
2023-09-11T18:11:23.582Z,72.08
2023-09-11T18:13:53.191Z,70.89
2023-09-11T18:16:19.850Z,71.49
2023-09-11T18:18:46.557Z,71.76
2023-09-11T18:21:13.336Z,72.03
2023-09-11T18:23:39.973Z,72.35
2023-09-11T18:26:06.555Z,74.35
2023-09-11T18:28:33.724Z,74.69
2023-09-11T18:31:00.299Z,74.78
2023-09-11T18:33:27.173Z,74.04
2023-09-11T18:35:55.255Z,74.25
2023-09-11T18:38:22.225Z,75.13
2023-09-11T18:40:48.830Z,75.77
2023-09-11T18:43:16.934Z,75.03
2023-09-11T18:45:43.786Z,75.36
2023-09-11T18:48:10.453Z,77.69
2023-09-11T18:50:37.327Z,77.43
2023-09-11T18:53:04.128Z,77.17
2023-09-11T18:55:32.369Z,77.62
2023-09-11T18:57:59.057Z,77.81
2023-09-11T19:00:27.439Z,78.13
2023-09-11T19:02:54.288Z,78.99
2023-09-11T19:05:21.086Z,79.57
2023-09-11T19:07:47.617Z,79.39
2023-09-11T19:10:14.259Z,80.13
2023-09-11T19:12:41.956Z,80.43
2023-09-11T19:15:08.768Z,80.12
2023-09-11T19:17:35.505Z,80.69
2023-09-11T19:20:02.131Z,80.72
2023-09-11T19:22:28.647Z,80.78
2023-09-11T19:24:58.900Z,81.46
2023-09-11T19:27:25.426Z,81.25
2023-09-11T19:29:52.024Z,81.53
2023-09-11T19:32:18.570Z,81.97
2023-09-11T19:34:45.275Z,82.13
2023-09-11T19:37:12.998Z,82.34
2023-09-11T19:39:39.619Z,82.51
2023-09-11T19:42:06.271Z,82.18
2023-09-11T19:44:32.955Z,82.36
2023-09-11T19:46:59.566Z,82.66
2023-09-11T19:49:26.125Z,82.83
2023-09-11T19:51:52.647Z,82.72
2023-09-11T19:54:19.217Z,83.09
2023-09-11T19:56:46.059Z,82.92
2023-09-11T19:59:12.660Z,83.11
2023-09-11T20:01:39.424Z,83.00
2023-09-11T20:04:06.495Z,83.40
2023-09-11T20:06:33.493Z,83.83
2023-09-11T20:09:00.363Z,83.70
2023-09-11T20:11:27.457Z,83.56
2023-09-11T20:13:54.024Z,83.79
2023-09-11T20:16:20.815Z,83.72
2023-09-11T20:18:47.555Z,84.24
2023-09-11T20:21:14.251Z,84.02
2023-09-11T20:23:40.804Z,83.99
2023-09-11T20:26:07.499Z,84.22
2023-09-11T20:28:34.033Z,84.21
2023-09-11T20:31:16.423Z,84.17
2023-09-11T20:33:44.512Z,84.18
2023-09-11T20:36:16.555Z,84.22
2023-09-11T20:38:46.873Z,84.55
2023-09-11T20:41:13.410Z,84.27
2023-09-11T20:43:43.467Z,84.40
2023-09-11T20:46:11.507Z,84.19
2023-09-11T20:48:40.537Z,84.10
2023-09-11T20:51:11.880Z,84.23
2023-09-11T20:53:39.060Z,84.36
2023-09-11T20:56:06.997Z,84.16
2023-09-11T20:58:33.972Z,84.85
2023-09-11T21:01:05.137Z,86.09
2023-09-11T21:03:32.936Z,85.25
2023-09-11T21:06:00.848Z,85.12
2023-09-11T21:08:27.737Z,85.20
2023-09-11T21:10:54.471Z,85.32
2023-09-11T21:13:25.118Z,85.29
2023-09-11T21:15:51.875Z,85.36
2023-09-11T21:18:19.019Z,85.49
2023-09-11T21:20:45.662Z,85.24
2023-09-11T21:23:12.218Z,85.18
2023-09-11T21:25:38.869Z,85.35
2023-09-11T21:28:05.704Z,85.50
2023-09-11T21:30:33.583Z,85.46
2023-09-11T21:33:00.642Z,85.53
2023-09-11T21:35:27.406Z,85.49
2023-09-11T21:37:53.932Z,85.44
2023-09-11T21:40:20.534Z,85.82
2023-09-11T21:42:47.118Z,85.93
2023-09-11T21:45:13.755Z,86.00
2023-09-11T21:47:40.430Z,86.02
2023-09-11T21:50:07.254Z,85.94
2023-09-11T21:52:33.881Z,85.97
2023-09-11T21:55:00.466Z,86.25
2023-09-11T21:57:27.499Z,86.13
2023-09-11T21:59:54.109Z,86.47
2023-09-11T22:02:20.743Z,86.82
2023-09-11T22:04:50.784Z,87.39
2023-09-11T22:07:17.700Z,87.84
2023-09-11T22:09:44.370Z,87.77
2023-09-11T22:12:13.125Z,87.53
2023-09-11T22:14:40.055Z,87.70
2023-09-11T22:17:06.635Z,87.71
2023-09-11T22:19:33.327Z,88.15
2023-09-11T22:21:59.882Z,88.09
2023-09-11T22:24:26.447Z,87.94
2023-09-11T22:26:52.970Z,87.79
2023-09-11T22:29:20.623Z,88.05
2023-09-11T22:31:47.635Z,88.25
2023-09-11T22:34:14.880Z,88.60
2023-09-11T22:36:41.601Z,88.43
2023-09-11T22:39:08.180Z,88.40
2023-09-11T22:41:34.732Z,88.07
2023-09-11T22:44:01.277Z,88.49
2023-09-11T22:46:27.909Z,88.41
2023-09-11T22:48:54.570Z,88.66
2023-09-11T22:51:21.219Z,88.74
2023-09-11T22:53:47.748Z,88.82
2023-09-11T22:56:14.349Z,88.78
2023-09-11T22:58:41.126Z,88.71
2023-09-11T23:01:30.376Z,88.67
2023-09-11T23:03:57.609Z,89.06
2023-09-11T23:06:24.429Z,89.30
2023-09-11T23:08:51.074Z,89.29
2023-09-11T23:11:17.606Z,88.94
2023-09-11T23:13:44.158Z,89.28
2023-09-11T23:16:10.753Z,89.24
2023-09-11T23:18:37.366Z,89.60
2023-09-11T23:21:04.037Z,90.12
2023-09-11T23:23:40.044Z,90.09
2023-09-11T23:26:07.903Z,90.02
2023-09-11T23:28:34.755Z,90.18
2023-09-11T23:31:01.575Z,90.36
2023-09-11T23:33:28.287Z,90.19
2023-09-11T23:35:55.421Z,90.25
2023-09-11T23:38:22.024Z,90.09
2023-09-11T23:40:48.598Z,90.49
2023-09-11T23:43:15.128Z,90.32
2023-09-11T23:45:41.884Z,90.65
2023-09-11T23:48:08.667Z,90.84
2023-09-11T23:50:35.295Z,91.16
2023-09-11T23:53:01.788Z,91.15
2023-09-11T23:55:29.526Z,91.15
2023-09-11T23:57:56.121Z,91.19
